createdAt,value
2023-03-06T00:01:31.222Z,1.38
2023-03-06T00:03:57.726Z,1.40
2023-03-06T00:06:24.415Z,1.39
2023-03-06T00:08:50.832Z,1.37
2023-03-06T00:11:17.464Z,1.35
2023-03-06T00:13:43.917Z,1.35
2023-03-06T00:16:10.390Z,1.35
2023-03-06T00:18:36.845Z,1.36
2023-03-06T00:21:06.870Z,1.40
2023-03-06T00:23:33.389Z,1.41
2023-03-06T00:25:59.834Z,1.38
2023-03-06T00:28:26.364Z,1.37
2023-03-06T00:30:52.845Z,1.31
2023-03-06T00:33:19.617Z,1.33
2023-03-06T00:35:46.114Z,1.33
2023-03-06T00:38:13.109Z,1.33
2023-03-06T00:40:39.627Z,1.30
2023-03-06T00:43:06.072Z,1.29
2023-03-06T00:45:33.024Z,1.33
2023-03-06T00:47:59.507Z,1.32
2023-03-06T00:50:26.010Z,1.35
2023-03-06T00:52:52.470Z,1.36
2023-03-06T00:55:18.935Z,1.35
2023-03-06T00:57:45.422Z,1.31
2023-03-06T01:00:12.577Z,1.30
2023-03-06T01:02:39.392Z,1.28
2023-03-06T01:05:06.561Z,1.26
2023-03-06T01:07:37.076Z,1.29
2023-03-06T01:10:05.121Z,1.28
2023-03-06T01:12:31.632Z,1.29
2023-03-06T01:14:58.090Z,1.29
2023-03-06T01:17:24.577Z,1.33
2023-03-06T01:19:51.077Z,1.32
2023-03-06T01:22:17.501Z,1.36
2023-03-06T01:24:43.938Z,1.33
2023-03-06T01:27:10.381Z,1.30
2023-03-06T01:29:36.811Z,1.30
2023-03-06T01:32:03.441Z,1.30
2023-03-06T01:34:30.023Z,1.30
2023-03-06T01:36:56.488Z,1.31
2023-03-06T01:39:22.960Z,1.31
2023-03-06T01:41:49.440Z,1.33
2023-03-06T01:44:15.908Z,1.34
2023-03-06T01:46:43.360Z,1.33
2023-03-06T01:49:16.533Z,1.36
2023-03-06T01:51:49.063Z,1.37
2023-03-06T01:54:17.608Z,1.39
2023-03-06T01:56:46.271Z,1.41
2023-03-06T01:59:13.493Z,1.39
2023-03-06T02:01:40.891Z,1.37
2023-03-06T02:04:08.099Z,1.37
2023-03-06T02:06:36.753Z,1.36
2023-03-06T02:09:05.129Z,1.34
2023-03-06T02:11:31.766Z,1.35
2023-03-06T02:13:58.290Z,1.32
2023-03-06T02:16:26.618Z,1.32
2023-03-06T02:18:53.492Z,1.33
2023-03-06T02:21:32.135Z,1.36
2023-03-06T02:24:13.689Z,1.35
2023-03-06T02:26:41.223Z,1.39
2023-03-06T02:29:08.160Z,1.38
2023-03-06T02:31:35.624Z,1.36
2023-03-06T02:34:07.027Z,1.35
2023-03-06T02:36:40.907Z,1.37
2023-03-06T02:39:07.787Z,1.36
2023-03-06T02:41:34.247Z,1.37
2023-03-06T02:44:00.720Z,1.39
2023-03-06T02:46:27.285Z,1.37
2023-03-06T02:48:53.748Z,1.34
2023-03-06T02:51:20.231Z,1.32
2023-03-06T02:53:46.714Z,1.34
2023-03-06T02:56:13.494Z,1.36
2023-03-06T02:58:39.950Z,1.37
2023-03-06T03:01:06.892Z,1.36
2023-03-06T03:03:33.424Z,1.34
2023-03-06T03:06:00.369Z,1.35
2023-03-06T03:08:27.353Z,1.33
2023-03-06T03:10:55.163Z,1.34
2023-03-06T03:13:21.667Z,1.35
2023-03-06T03:15:57.389Z,1.38
2023-03-06T03:18:23.867Z,1.37
2023-03-06T03:20:50.309Z,1.36
2023-03-06T03:23:16.734Z,1.38
2023-03-06T03:25:43.206Z,1.38
2023-03-06T03:28:09.695Z,1.35
2023-03-06T03:30:36.160Z,1.32
2023-03-06T03:33:02.599Z,1.27
2023-03-06T03:35:29.096Z,1.25
2023-03-06T03:37:55.631Z,1.27
2023-03-06T03:40:22.134Z,1.28
2023-03-06T03:42:48.756Z,1.30
2023-03-06T03:45:15.317Z,1.29
2023-03-06T03:47:41.885Z,1.28
2023-03-06T03:50:08.754Z,1.28
2023-03-06T03:52:35.278Z,1.27
2023-03-06T03:55:01.746Z,1.26
2023-03-06T03:57:28.225Z,1.22
2023-03-06T03:59:54.720Z,1.23
2023-03-06T04:02:24.006Z,1.24
2023-03-06T04:04:50.539Z,1.23
2023-03-06T04:07:16.973Z,1.23
2023-03-06T04:09:43.434Z,1.24
2023-03-06T04:12:09.866Z,1.21
2023-03-06T04:14:36.367Z,1.20
2023-03-06T04:17:02.804Z,1.19
2023-03-06T04:19:29.246Z,1.22
2023-03-06T04:21:55.717Z,1.23
2023-03-06T04:24:22.252Z,1.23
2023-03-06T04:26:48.880Z,1.26
2023-03-06T04:29:15.808Z,1.27
2023-03-06T04:31:42.309Z,1.28
2023-03-06T04:34:08.802Z,1.31
2023-03-06T04:36:35.432Z,1.29
2023-03-06T04:39:02.228Z,1.26
2023-03-06T04:41:28.800Z,1.23
2023-03-06T04:43:55.329Z,1.24
2023-03-06T04:46:21.807Z,1.19
2023-03-06T04:48:48.268Z,1.14
2023-03-06T04:51:15.593Z,1.13
2023-03-06T04:53:42.078Z,1.10
2023-03-06T04:56:08.873Z,1.02
2023-03-06T04:58:35.391Z,0.96
2023-03-06T05:01:02.100Z,0.92
2023-03-06T05:03:28.582Z,0.88
2023-03-06T05:05:55.030Z,0.90
2023-03-06T05:08:21.758Z,0.90
2023-03-06T05:10:53.896Z,0.88
2023-03-06T05:13:20.351Z,0.84
2023-03-06T05:15:51.333Z,0.73
2023-03-06T05:18:17.819Z,0.69
2023-03-06T05:20:44.289Z,0.67
2023-03-06T05:23:11.004Z,0.67
2023-03-06T05:25:40.567Z,0.67
2023-03-06T05:28:07.546Z,0.72
2023-03-06T05:30:34.160Z,0.72
2023-03-06T05:33:00.806Z,0.73
2023-03-06T05:35:27.311Z,0.77
2023-03-06T05:37:54.188Z,0.68
2023-03-06T05:40:20.805Z,0.63
2023-03-06T05:42:47.267Z,0.66
2023-03-06T05:45:13.731Z,0.69
2023-03-06T05:47:40.207Z,0.72
2023-03-06T05:50:08.352Z,0.76
2023-03-06T05:52:34.837Z,0.81
2023-03-06T05:55:01.389Z,0.79
2023-03-06T05:57:27.857Z,0.68
2023-03-06T05:59:54.387Z,0.66
2023-03-06T06:02:21.015Z,0.69
2023-03-06T06:04:47.678Z,0.65
2023-03-06T06:07:14.864Z,0.65
2023-03-06T06:09:41.740Z,0.69
2023-03-06T06:12:08.795Z,0.67
2023-03-06T06:14:35.229Z,0.65
2023-03-06T06:17:01.714Z,0.69
2023-03-06T06:19:29.146Z,0.76
2023-03-06T06:21:55.884Z,0.81
2023-03-06T06:24:23.839Z,0.85
2023-03-06T06:26:51.099Z,0.87
2023-03-06T06:29:17.532Z,0.87
2023-03-06T06:31:44.048Z,0.90
2023-03-06T06:34:11.012Z,0.88
2023-03-06T06:36:37.862Z,0.94
2023-03-06T06:39:04.810Z,0.98
2023-03-06T06:41:50.611Z,1.02
2023-03-06T06:44:18.279Z,1.03
2023-03-06T06:49:32.429Z,0.99
2023-03-06T06:51:58.927Z,1.06
2023-03-06T06:54:25.474Z,1.08
2023-03-06T06:56:51.963Z,1.10
2023-03-06T06:59:18.495Z,1.11
2023-03-06T07:01:45.000Z,1.17
2023-03-06T07:04:14.402Z,1.21
2023-03-06T07:06:41.316Z,1.22
2023-03-06T07:09:07.750Z,1.26
2023-03-06T07:11:34.214Z,1.29
2023-03-06T07:14:01.841Z,1.32
2023-03-06T07:16:28.292Z,1.37
2023-03-06T07:18:55.090Z,1.43
2023-03-06T07:21:21.564Z,1.52
2023-03-06T07:23:48.061Z,1.60
2023-03-06T07:26:14.530Z,1.61
2023-03-06T07:28:52.039Z,1.58
2023-03-06T07:31:24.458Z,1.61
2023-03-06T07:33:51.371Z,1.58
2023-03-06T07:36:17.991Z,1.58
2023-03-06T07:38:44.458Z,1.66
2023-03-06T07:41:13.700Z,1.74
2023-03-06T07:43:41.134Z,1.71
2023-03-06T07:46:07.904Z,1.72
2023-03-06T07:48:34.924Z,1.82
2023-03-06T07:51:06.396Z,1.87
2023-03-06T07:53:32.874Z,1.83
2023-03-06T07:55:59.495Z,1.85
2023-03-06T07:58:26.100Z,1.87
2023-03-06T08:00:52.805Z,1.93
2023-03-06T08:03:19.318Z,2.02
2023-03-06T08:05:46.046Z,2.08
2023-03-06T08:08:12.866Z,2.12
2023-03-06T08:10:39.335Z,2.11
2023-03-06T08:13:05.778Z,2.07
2023-03-06T08:15:32.237Z,2.08
2023-03-06T08:17:58.664Z,2.07
2023-03-06T08:20:25.147Z,2.08
2023-03-06T08:22:51.583Z,2.16
2023-03-06T08:25:18.144Z,2.24
2023-03-06T08:27:46.735Z,2.30
2023-03-06T08:30:13.466Z,2.36
2023-03-06T08:32:40.147Z,2.43
2023-03-06T08:35:06.777Z,2.53
2023-03-06T08:37:33.244Z,2.56
2023-03-06T08:39:59.810Z,2.63
2023-03-06T08:42:26.245Z,2.68
2023-03-06T08:44:52.785Z,2.71
2023-03-06T08:47:19.238Z,2.77
2023-03-06T08:49:45.699Z,2.79
2023-03-06T08:52:12.269Z,2.81
2023-03-06T08:54:39.750Z,2.87
2023-03-06T08:57:06.556Z,2.95
2023-03-06T08:59:33.017Z,2.99
2023-03-06T09:01:59.887Z,3.01
2023-03-06T09:04:26.397Z,3.00
2023-03-06T09:06:54.561Z,3.06
2023-03-06T09:09:21.946Z,3.11
2023-03-06T09:11:48.549Z,3.17
2023-03-06T09:14:15.038Z,3.18
2023-03-06T09:16:41.656Z,3.27
2023-03-06T09:19:08.146Z,3.31
2023-03-06T09:21:34.594Z,3.39
2023-03-06T09:24:01.080Z,3.42
2023-03-06T09:26:39.712Z,3.39
2023-03-06T09:29:10.120Z,3.32
2023-03-06T09:31:36.582Z,3.34
2023-03-06T09:34:03.230Z,3.37
2023-03-06T09:36:29.711Z,3.46
2023-03-06T09:38:56.204Z,3.52
2023-03-06T09:41:26.304Z,3.64
2023-03-06T09:43:54.799Z,3.72
2023-03-06T09:46:39.743Z,3.79
2023-03-06T09:49:15.256Z,3.86
2023-03-06T09:51:44.788Z,3.92
2023-03-06T09:54:13.357Z,3.98
2023-03-06T09:56:44.140Z,4.01
2023-03-06T09:59:17.492Z,4.10
2023-03-06T10:01:46.350Z,4.22
2023-03-06T10:04:28.179Z,4.24
2023-03-06T10:06:56.543Z,4.23
2023-03-06T10:09:36.419Z,4.23
2023-03-06T10:12:11.932Z,4.24
2023-03-06T10:14:40.587Z,4.28
2023-03-06T10:17:13.561Z,4.30
2023-03-06T10:19:41.544Z,4.40
2023-03-06T10:22:14.008Z,4.46
2023-03-06T10:24:49.749Z,4.52
2023-03-06T10:27:24.446Z,4.64
2023-03-06T10:30:02.794Z,4.68
2023-03-06T10:32:49.601Z,4.73
2023-03-06T10:35:22.235Z,4.82
2023-03-06T10:37:48.851Z,4.86
2023-03-06T10:40:19.974Z,4.87
2023-03-06T10:42:46.424Z,4.90
2023-03-06T10:45:14.779Z,4.88
2023-03-06T10:47:41.832Z,4.87
2023-03-06T10:50:17.232Z,4.93
2023-03-06T10:52:43.729Z,5.05
2023-03-06T10:55:22.748Z,5.17
2023-03-06T10:57:49.187Z,5.29
2023-03-06T11:00:32.773Z,5.40
2023-03-06T11:03:17.447Z,5.37
2023-03-06T11:06:04.728Z,5.34
2023-03-06T11:08:31.973Z,5.45
2023-03-06T11:11:00.916Z,5.52
2023-03-06T11:13:28.646Z,5.48
2023-03-06T11:15:57.273Z,5.50
2023-03-06T11:18:34.814Z,5.53
2023-03-06T11:21:03.676Z,5.55
2023-03-06T11:23:30.327Z,5.63
2023-03-06T11:25:59.535Z,5.70
2023-03-06T11:28:28.717Z,5.73
2023-03-06T11:31:00.354Z,5.79
2023-03-06T11:33:34.089Z,5.78
2023-03-06T11:36:12.680Z,5.81
2023-03-06T11:38:43.293Z,5.88
2023-03-06T11:41:21.466Z,5.92
2023-03-06T11:43:51.025Z,5.87
2023-03-06T11:46:22.317Z,5.93
2023-03-06T11:49:07.643Z,5.80
2023-03-06T11:51:35.731Z,5.87
2023-03-06T11:54:02.448Z,5.99
2023-03-06T11:56:36.494Z,6.09
2023-03-06T11:59:16.523Z,6.17
2023-03-06T12:02:03.239Z,6.26
2023-03-06T12:05:02.436Z,6.30
2023-03-06T12:07:34.814Z,6.13
2023-03-06T12:10:10.437Z,6.10
2023-03-06T12:12:55.677Z,6.01
2023-03-06T12:15:28.097Z,6.08
2023-03-06T12:18:13.352Z,5.99
2023-03-06T12:20:44.120Z,6.10
2023-03-06T12:23:16.684Z,6.11
2023-03-06T12:25:45.138Z,6.11
2023-03-06T12:28:14.567Z,6.10
2023-03-06T12:30:43.994Z,6.18
2023-03-06T12:33:19.563Z,6.24
2023-03-06T12:36:04.546Z,6.18
2023-03-06T12:38:31.011Z,6.17
2023-03-06T12:41:08.469Z,6.22
2023-03-06T12:43:39.976Z,6.17
2023-03-06T12:46:12.818Z,6.21
2023-03-06T12:48:40.055Z,6.14
2023-03-06T12:51:08.037Z,6.12
2023-03-06T12:53:35.944Z,6.17
2023-03-06T12:56:03.122Z,6.07
2023-03-06T12:58:32.283Z,5.97
2023-03-06T13:01:07.691Z,5.81
2023-03-06T13:03:34.204Z,5.76
2023-03-06T13:06:00.627Z,5.75
2023-03-06T13:08:46.524Z,5.78
2023-03-06T13:11:12.945Z,5.81
2023-03-06T13:13:46.978Z,5.80
2023-03-06T13:16:13.444Z,5.77
2023-03-06T13:18:42.981Z,5.74
2023-03-06T13:21:28.339Z,5.74
2023-03-06T13:24:03.647Z,5.68
2023-03-06T13:26:30.115Z,5.66
2023-03-06T13:28:58.015Z,5.70
2023-03-06T13:31:33.801Z,5.70
2023-03-06T13:34:01.690Z,5.76
2023-03-06T13:36:29.586Z,5.66
2023-03-06T13:38:57.108Z,5.49
2023-03-06T13:41:23.544Z,5.48
2023-03-06T13:43:51.366Z,5.49
2023-03-06T13:46:25.921Z,5.51
2023-03-06T13:49:10.696Z,5.51
2023-03-06T13:51:38.594Z,5.46
2023-03-06T13:54:12.141Z,5.32
2023-03-06T13:56:54.629Z,5.34
2023-03-06T13:59:26.965Z,5.32
2023-03-06T14:01:53.395Z,5.35
2023-03-06T14:04:38.742Z,5.31
2023-03-06T14:07:08.385Z,5.28
2023-03-06T14:09:37.260Z,5.37
2023-03-06T14:12:08.573Z,5.33
2023-03-06T14:14:39.137Z,5.35
2023-03-06T14:17:05.608Z,5.34
2023-03-06T14:19:36.319Z,5.36
2023-03-06T14:22:03.807Z,5.19
2023-03-06T14:24:34.323Z,5.27
2023-03-06T14:27:00.914Z,5.27
2023-03-06T14:29:29.161Z,5.23
2023-03-06T14:31:56.780Z,5.21
2023-03-06T14:34:24.612Z,5.21
2023-03-06T14:36:51.966Z,5.18
2023-03-06T14:39:21.196Z,5.13
2023-03-06T14:41:47.733Z,5.08
2023-03-06T14:44:17.920Z,5.09
2023-03-06T14:46:44.982Z,5.14
2023-03-06T14:49:13.312Z,5.19
2023-03-06T14:51:44.155Z,5.21
2023-03-06T14:54:16.547Z,5.11
2023-03-06T14:56:45.943Z,5.08
2023-03-06T14:59:13.552Z,4.98
2023-03-06T15:01:41.536Z,4.97
2023-03-06T15:04:20.169Z,4.99
2023-03-06T15:06:46.893Z,4.94
2023-03-06T15:09:20.434Z,4.94
2023-03-06T15:12:09.394Z,4.85
2023-03-06T15:14:40.307Z,4.69
2023-03-06T15:17:19.119Z,4.69
2023-03-06T15:19:47.152Z,4.71
2023-03-06T15:22:25.433Z,4.71
2023-03-06T15:24:52.030Z,4.73
2023-03-06T15:27:19.923Z,4.76
2023-03-06T15:29:46.388Z,4.67
2023-03-06T15:32:24.941Z,4.63
2023-03-06T15:35:10.163Z,4.49
2023-03-06T15:37:36.639Z,4.37
2023-03-06T15:40:09.434Z,4.20
2023-03-06T15:42:36.347Z,4.20
2023-03-06T15:45:12.686Z,4.20
2023-03-06T15:47:39.126Z,4.19
2023-03-06T15:50:13.207Z,4.18
2023-03-06T15:52:39.739Z,4.15
2023-03-06T15:55:06.405Z,4.12
2023-03-06T15:57:32.874Z,4.16
2023-03-06T16:00:00.454Z,4.12
2023-03-06T16:02:26.970Z,4.05
2023-03-06T16:04:53.734Z,4.00
2023-03-06T16:07:20.795Z,4.03
2023-03-06T16:09:49.136Z,3.95
2023-03-06T16:12:17.516Z,3.93
2023-03-06T16:14:44.831Z,3.90
2023-03-06T16:17:12.148Z,3.69
2023-03-06T16:19:38.636Z,3.76
2023-03-06T16:22:05.093Z,3.77
2023-03-06T16:24:32.399Z,3.66
2023-03-06T16:27:00.534Z,3.59
2023-03-06T16:29:27.921Z,3.62
2023-03-06T16:31:55.296Z,3.61
2023-03-06T16:34:22.025Z,3.66
2023-03-06T16:36:49.210Z,3.68
2023-03-06T16:39:17.013Z,3.60
2023-03-06T16:41:45.856Z,3.45
2023-03-06T16:44:12.892Z,3.48
2023-03-06T16:46:41.580Z,3.51
2023-03-06T16:49:12.596Z,3.47
2023-03-06T16:51:40.281Z,3.41
2023-03-06T16:54:06.720Z,3.45
2023-03-06T16:56:33.149Z,3.54
2023-03-06T16:58:59.648Z,3.61
2023-03-06T17:01:26.141Z,3.61
2023-03-06T17:03:52.624Z,3.61
2023-03-06T17:06:23.173Z,3.66
2023-03-06T17:08:50.490Z,3.67
2023-03-06T17:11:17.743Z,3.59
2023-03-06T17:13:44.323Z,3.59
2023-03-06T17:16:16.048Z,3.64
2023-03-06T17:18:43.249Z,3.66
2023-03-06T17:21:10.625Z,3.66
2023-03-06T17:23:37.270Z,3.67
2023-03-06T17:26:09.711Z,3.69
2023-03-06T17:28:37.157Z,3.66
2023-03-06T17:31:10.566Z,3.68
2023-03-06T17:33:37.006Z,3.62
2023-03-06T17:36:03.573Z,3.62
2023-03-06T17:38:30.036Z,3.60
2023-03-06T17:40:56.559Z,3.51
2023-03-06T17:43:23.030Z,3.46
2023-03-06T17:45:49.594Z,3.34
2023-03-06T17:48:16.101Z,3.36
2023-03-06T17:50:42.664Z,3.36
2023-03-06T17:53:09.167Z,3.40
2023-03-06T17:55:37.769Z,3.43
2023-03-06T17:58:04.206Z,3.36
2023-03-06T18:00:30.628Z,3.35
2023-03-06T18:02:57.093Z,3.30
2023-03-06T18:05:23.510Z,3.28
2023-03-06T18:07:49.998Z,3.30
2023-03-06T18:10:16.611Z,3.31
2023-03-06T18:12:43.428Z,3.29
2023-03-06T18:15:09.987Z,3.26
2023-03-06T18:17:36.508Z,3.26
2023-03-06T18:20:03.565Z,3.19
2023-03-06T18:22:30.002Z,3.12
2023-03-06T18:24:56.437Z,3.09
2023-03-06T18:27:22.961Z,3.11
2023-03-06T18:29:49.613Z,3.06
2023-03-06T18:32:16.120Z,3.08
2023-03-06T18:34:42.605Z,3.06
2023-03-06T18:37:09.103Z,3.09
2023-03-06T18:39:35.747Z,3.07
2023-03-06T18:42:02.257Z,3.06
2023-03-06T18:44:28.688Z,3.02
2023-03-06T18:46:55.124Z,2.94
2023-03-06T18:49:22.133Z,2.94
2023-03-06T18:51:49.748Z,2.97
2023-03-06T18:54:16.189Z,3.00
2023-03-06T18:56:44.589Z,3.03
2023-03-06T18:59:14.206Z,3.03
2023-03-06T19:01:44.397Z,3.03
2023-03-06T19:04:10.973Z,3.02
2023-03-06T19:06:38.205Z,3.00
2023-03-06T19:09:04.839Z,2.98
2023-03-06T19:11:32.140Z,2.96
2023-03-06T19:13:58.949Z,2.96
2023-03-06T19:16:26.806Z,2.88
2023-03-06T19:18:55.294Z,2.87
2023-03-06T19:21:22.462Z,2.89
2023-03-06T19:23:48.938Z,2.88
2023-03-06T19:26:15.987Z,2.90
2023-03-06T19:28:43.171Z,2.88
2023-03-06T19:31:10.950Z,2.86
2023-03-06T19:33:38.080Z,2.84
2023-03-06T19:36:05.989Z,2.83
2023-03-06T19:38:32.438Z,2.80
2023-03-06T19:41:00.447Z,2.74
2023-03-06T19:43:27.355Z,2.74
2023-03-06T19:45:54.061Z,2.72
2023-03-06T19:48:22.643Z,2.66
2023-03-06T19:50:49.268Z,2.59
2023-03-06T19:53:16.070Z,2.58
2023-03-06T19:55:43.188Z,2.56
2023-03-06T19:58:11.190Z,2.51
2023-03-06T20:00:37.698Z,2.43
2023-03-06T20:03:04.363Z,2.34
2023-03-06T20:05:30.831Z,2.30
2023-03-06T20:07:57.273Z,2.29
2023-03-06T20:10:23.948Z,2.30
2023-03-06T20:12:50.407Z,2.30
2023-03-06T20:15:19.008Z,2.29
2023-03-06T20:17:45.482Z,2.28
2023-03-06T20:20:12.379Z,2.24
2023-03-06T20:22:38.995Z,2.21
2023-03-06T20:25:05.774Z,2.20
2023-03-06T20:27:32.225Z,2.15
2023-03-06T20:29:58.745Z,2.10
2023-03-06T20:32:25.317Z,2.08
2023-03-06T20:34:51.799Z,2.06
2023-03-06T20:37:18.361Z,2.00
2023-03-06T20:39:45.874Z,1.96
2023-03-06T20:42:12.326Z,1.92
2023-03-06T20:44:38.847Z,1.90
2023-03-06T20:47:05.517Z,1.86
2023-03-06T20:49:31.949Z,1.77
2023-03-06T20:51:58.390Z,1.74
2023-03-06T20:54:26.219Z,1.71
2023-03-06T20:56:52.682Z,1.70
2023-03-06T20:59:19.212Z,1.70
2023-03-06T21:01:46.868Z,1.70
2023-03-06T21:04:14.697Z,1.70
2023-03-06T21:06:45.300Z,1.67
2023-03-06T21:09:12.561Z,1.63
2023-03-06T21:11:39.414Z,1.58
2023-03-06T21:14:06.069Z,1.56
2023-03-06T21:16:32.747Z,1.55
2023-03-06T21:18:59.799Z,1.51
2023-03-06T21:21:27.538Z,1.44
2023-03-06T21:23:54.067Z,1.41
2023-03-06T21:26:21.954Z,1.35
2023-03-06T21:28:48.772Z,1.28
2023-03-06T21:31:15.927Z,1.24
2023-03-06T21:33:42.777Z,1.27
2023-03-06T21:36:09.703Z,1.28
2023-03-06T21:38:36.543Z,1.27
2023-03-06T21:41:09.163Z,1.26
2023-03-06T21:43:35.721Z,1.20
2023-03-06T21:46:02.296Z,1.11
2023-03-06T21:48:28.848Z,1.07
2023-03-06T21:51:24.773Z,1.07
2023-03-06T21:53:51.880Z,1.04
2023-03-06T21:56:19.828Z,1.01
2023-03-06T21:58:46.289Z,0.98
2023-03-06T22:01:15.889Z,0.96
2023-03-06T22:03:42.368Z,0.97
2023-03-06T22:06:10.108Z,0.98
2023-03-06T22:08:36.797Z,0.98
2023-03-06T22:11:10.576Z,0.95
2023-03-06T22:13:37.547Z,0.87
2023-03-06T22:16:04.828Z,0.81
2023-03-06T22:18:31.269Z,0.78
2023-03-06T22:20:57.731Z,0.76
2023-03-06T22:23:24.217Z,0.75
2023-03-06T22:25:50.633Z,0.73
2023-03-06T22:28:18.607Z,0.73
2023-03-06T22:30:45.988Z,0.72
2023-03-06T22:33:12.482Z,0.68
2023-03-06T22:35:38.962Z,0.62
2023-03-06T22:38:05.484Z,0.59
2023-03-06T22:40:33.070Z,0.57
2023-03-06T22:42:59.567Z,0.51
2023-03-06T22:45:26.234Z,0.53
2023-03-06T22:47:57.110Z,0.54
2023-03-06T22:50:28.897Z,0.49
2023-03-06T22:52:55.326Z,0.46
2023-03-06T22:55:21.814Z,0.42
2023-03-06T22:57:48.259Z,0.41
2023-03-06T23:00:14.890Z,0.42
2023-03-06T23:02:41.408Z,0.45
2023-03-06T23:05:08.058Z,0.43
2023-03-06T23:07:34.503Z,0.39
2023-03-06T23:10:00.980Z,0.35
2023-03-06T23:12:27.410Z,0.32
2023-03-06T23:14:53.934Z,0.29
2023-03-06T23:17:20.400Z,0.32
2023-03-06T23:19:48.648Z,0.30
2023-03-06T23:22:15.207Z,0.26
2023-03-06T23:24:41.630Z,0.24
2023-03-06T23:27:08.088Z,0.20
2023-03-06T23:29:34.528Z,0.14
2023-03-06T23:32:01.478Z,0.14
2023-03-06T23:34:28.018Z,0.13
2023-03-06T23:36:54.475Z,0.07
2023-03-06T23:39:20.891Z,0.01
2023-03-06T23:41:47.322Z,0.07
2023-03-06T23:44:13.965Z,0.09
2023-03-06T23:46:40.551Z,0.03
2023-03-06T23:49:07.997Z,-0.03
2023-03-06T23:51:34.525Z,-0.13
2023-03-06T23:54:01.309Z,-0.13
2023-03-06T23:56:28.328Z,-0.21
2023-03-06T23:58:55.345Z,-0.22
